createdAt,value
2023-04-20T00:00:17.738Z,67.80
2023-04-20T00:03:21.476Z,67.88
2023-04-20T00:06:25.490Z,67.90
2023-04-20T00:09:27.303Z,67.99
2023-04-20T00:12:28.993Z,67.98
2023-04-20T00:15:30.714Z,67.98
2023-04-20T00:18:32.312Z,68.09
2023-04-20T00:21:34.440Z,68.12
2023-04-20T00:24:36.052Z,68.14
2023-04-20T00:27:37.687Z,68.33
2023-04-20T00:30:39.452Z,68.27
2023-04-20T00:33:41.134Z,68.41
2023-04-20T00:36:42.721Z,68.39
2023-04-20T00:39:44.349Z,68.54
2023-04-20T00:42:45.953Z,68.40
2023-04-20T00:45:47.729Z,68.56
2023-04-20T00:48:51.932Z,68.57
2023-04-20T00:51:53.519Z,68.55
2023-04-20T00:54:55.159Z,68.51
2023-04-20T00:57:57.294Z,68.61
2023-04-20T01:01:00.002Z,68.59
2023-04-20T01:04:01.821Z,68.67
2023-04-20T01:07:04.125Z,68.80
2023-04-20T01:10:07.499Z,68.69
2023-04-20T01:13:09.097Z,68.86
2023-04-20T01:16:12.032Z,68.97
2023-04-20T01:19:23.656Z,69.02
2023-04-20T01:22:25.477Z,69.13
2023-04-20T01:25:27.062Z,69.26
2023-04-20T01:28:28.652Z,69.45
2023-04-20T01:31:30.412Z,69.47
2023-04-20T01:34:33.183Z,69.58
2023-04-20T01:37:34.947Z,69.71
2023-04-20T01:40:39.207Z,69.85
2023-04-20T01:43:41.344Z,69.86
2023-04-20T01:46:43.043Z,69.93
2023-04-20T01:49:44.682Z,69.84
2023-04-20T01:52:46.351Z,69.84
2023-04-20T01:55:50.240Z,69.94
2023-04-20T01:58:51.734Z,69.84
2023-04-20T02:01:53.508Z,69.92
2023-04-20T02:04:55.483Z,69.86
2023-04-20T02:07:57.107Z,70.00
2023-04-20T02:10:58.804Z,69.91
2023-04-20T02:14:00.510Z,70.02
2023-04-20T02:17:02.190Z,70.01
2023-04-20T02:20:06.957Z,69.89
2023-04-20T02:23:08.677Z,69.85
2023-04-20T02:26:10.338Z,69.85
2023-04-20T02:29:15.699Z,69.66
2023-04-20T02:32:17.704Z,69.64
2023-04-20T02:35:19.615Z,69.58
2023-04-20T02:38:21.245Z,69.65
2023-04-20T02:41:23.109Z,69.76
2023-04-20T02:44:25.160Z,69.83
2023-04-20T02:47:26.815Z,69.88
2023-04-20T02:50:28.825Z,70.01
2023-04-20T02:53:53.531Z,70.03
2023-04-20T02:57:03.745Z,70.22
2023-04-20T03:00:09.325Z,70.33
2023-04-20T03:03:29.313Z,70.40
2023-04-20T03:06:32.634Z,70.44
2023-04-20T03:09:34.827Z,70.51
2023-04-20T03:12:54.482Z,70.50
2023-04-20T03:16:19.742Z,70.59
2023-04-20T03:19:25.216Z,70.65
2023-04-20T03:22:26.883Z,70.60
2023-04-20T03:25:30.262Z,70.76
2023-04-20T03:28:39.244Z,70.72
2023-04-20T03:31:41.450Z,70.80
2023-04-20T03:34:43.630Z,70.77
2023-04-20T03:37:45.509Z,70.74
2023-04-20T03:40:47.120Z,70.83
2023-04-20T03:43:50.845Z,70.81
2023-04-20T03:46:52.437Z,70.82
2023-04-20T03:49:54.131Z,70.77
2023-04-20T03:52:56.142Z,70.89
2023-04-20T03:55:57.801Z,70.82
2023-04-20T03:59:00.955Z,70.89
2023-04-20T04:02:02.783Z,70.95
2023-04-20T04:05:05.723Z,70.94
2023-04-20T04:08:07.698Z,70.96
2023-04-20T04:11:09.701Z,70.96
2023-04-20T04:14:20.755Z,70.96
2023-04-20T04:17:22.399Z,71.02
2023-04-20T04:20:25.537Z,71.03
2023-04-20T04:23:27.766Z,71.05
2023-04-20T04:26:50.800Z,71.11
2023-04-20T04:29:52.905Z,71.02
2023-04-20T04:32:55.639Z,71.02
2023-04-20T04:35:57.574Z,71.07
2023-04-20T04:38:59.607Z,71.02
2023-04-20T04:42:04.330Z,70.95
2023-04-20T04:45:13.780Z,70.92
2023-04-20T04:48:16.231Z,70.88
2023-04-20T04:51:17.820Z,71.00
2023-04-20T04:54:19.429Z,71.02
2023-04-20T04:57:21.102Z,71.02
2023-04-20T05:00:23.599Z,70.97
2023-04-20T05:03:25.911Z,70.94
2023-04-20T05:06:27.589Z,71.07
2023-04-20T05:09:33.474Z,71.07
2023-04-20T05:12:35.288Z,71.11
2023-04-20T05:15:36.842Z,71.30
2023-04-20T05:18:38.409Z,71.29
2023-04-20T05:21:40.012Z,71.34
2023-04-20T05:24:42.511Z,71.27
2023-04-20T05:27:44.104Z,71.31
2023-04-20T05:30:45.859Z,71.41
2023-04-20T05:33:47.467Z,71.52
2023-04-20T05:36:49.129Z,71.54
2023-04-20T05:39:50.778Z,71.61
2023-04-20T05:42:52.391Z,71.51
2023-04-20T05:45:53.982Z,71.56
2023-04-20T05:48:55.832Z,71.63
2023-04-20T05:51:57.728Z,71.63
2023-04-20T05:55:00.248Z,71.66
2023-04-20T05:58:02.089Z,71.70
2023-04-20T06:01:04.660Z,71.70
2023-04-20T06:04:06.954Z,71.77
2023-04-20T06:07:09.277Z,71.69
2023-04-20T06:10:11.165Z,71.58
2023-04-20T06:13:12.775Z,71.48
2023-04-20T06:16:14.492Z,71.47
2023-04-20T06:19:16.220Z,71.40
2023-04-20T06:22:18.293Z,71.50
2023-04-20T06:25:20.167Z,71.46
2023-04-20T06:28:21.792Z,71.58
2023-04-20T06:31:23.483Z,71.45
2023-04-20T06:34:25.189Z,71.42
2023-04-20T06:37:27.945Z,71.39
2023-04-20T06:40:29.909Z,71.39
2023-04-20T06:43:31.543Z,71.25
2023-04-20T06:46:33.223Z,71.12
2023-04-20T06:49:34.844Z,70.89
2023-04-20T06:52:40.512Z,70.82
2023-04-20T06:55:42.096Z,70.62
2023-04-20T06:58:43.782Z,70.43
2023-04-20T07:01:45.404Z,70.24
2023-04-20T07:04:47.121Z,70.10
2023-04-20T07:07:48.738Z,69.89
2023-04-20T07:10:50.470Z,69.59
2023-04-20T07:13:52.131Z,69.49
2023-04-20T07:16:54.376Z,69.27
2023-04-20T07:19:56.472Z,69.20
2023-04-20T07:22:58.053Z,68.98
2023-04-20T07:25:59.650Z,68.83
2023-04-20T07:29:01.241Z,68.71
2023-04-20T07:32:02.971Z,68.45
2023-04-20T07:35:05.355Z,68.18
2023-04-20T07:38:06.942Z,68.03
2023-04-20T07:41:10.660Z,67.70
2023-04-20T07:44:13.804Z,67.47
2023-04-20T07:47:15.495Z,67.17
2023-04-20T07:50:17.389Z,66.96
2023-04-20T07:53:19.243Z,66.70
2023-04-20T07:56:21.156Z,66.37
2023-04-20T07:59:22.789Z,66.22
2023-04-20T08:02:24.792Z,65.94
2023-04-20T08:05:27.310Z,65.70
2023-04-20T08:08:29.714Z,65.53
2023-04-20T08:11:31.509Z,65.17
2023-04-20T08:14:33.850Z,64.89
2023-04-20T08:17:35.814Z,64.84
2023-04-20T08:20:37.643Z,64.64
2023-04-20T08:23:39.242Z,64.44
2023-04-20T08:26:40.884Z,64.34
2023-04-20T08:29:42.549Z,64.04
2023-04-20T08:32:44.353Z,63.89
2023-04-20T08:35:46.006Z,63.74
2023-04-20T08:38:55.090Z,63.57
2023-04-20T08:41:57.494Z,63.42
2023-04-20T08:44:59.663Z,63.17
2023-04-20T08:48:06.505Z,62.96
2023-04-20T08:51:08.444Z,62.73
2023-04-20T08:54:11.424Z,62.54
2023-04-20T08:57:13.084Z,62.45
2023-04-20T09:00:15.588Z,62.22
2023-04-20T09:03:17.674Z,62.04
2023-04-20T09:06:20.980Z,61.79
2023-04-20T09:09:27.962Z,61.57
2023-04-20T09:12:40.886Z,61.46
2023-04-20T09:15:42.480Z,61.13
2023-04-20T09:18:55.814Z,61.05
2023-04-20T09:22:04.037Z,60.92
2023-04-20T09:25:16.028Z,60.95
2023-04-20T09:28:18.212Z,60.64
2023-04-20T09:31:21.583Z,60.42
2023-04-20T09:34:24.120Z,60.39
2023-04-20T09:37:25.810Z,60.26
2023-04-20T09:40:27.791Z,60.16
2023-04-20T09:43:30.579Z,60.01
2023-04-20T09:46:34.081Z,60.05
2023-04-20T09:49:35.991Z,59.92
2023-04-20T09:52:38.604Z,59.89
2023-04-20T09:55:40.332Z,59.84
2023-04-20T09:58:42.906Z,59.99
2023-04-20T10:01:44.674Z,60.00
2023-04-20T10:04:59.579Z,59.95
2023-04-20T10:08:01.855Z,59.99
2023-04-20T10:11:03.450Z,59.99
2023-04-20T10:14:19.590Z,60.06
2023-04-20T10:17:33.194Z,60.09
2023-04-20T10:20:34.803Z,60.07
2023-04-20T10:23:47.820Z,60.14
2023-04-20T10:26:49.531Z,60.04
2023-04-20T10:29:51.205Z,60.05
2023-04-20T10:33:11.411Z,59.98
2023-04-20T10:36:39.681Z,60.02
2023-04-20T10:39:47.904Z,60.00
2023-04-20T10:42:49.457Z,59.99
2023-04-20T10:45:51.361Z,60.09
2023-04-20T10:48:59.175Z,59.98
2023-04-20T10:52:00.788Z,60.10
2023-04-20T10:55:03.074Z,60.09
2023-04-20T10:58:04.633Z,60.21
2023-04-20T11:01:06.712Z,60.17
2023-04-20T11:04:10.555Z,60.11
2023-04-20T11:07:13.702Z,60.16
2023-04-20T11:10:15.749Z,60.22
2023-04-20T11:13:22.537Z,60.31
2023-04-20T11:16:30.465Z,60.39
2023-04-20T11:19:38.123Z,60.70
2023-04-20T11:22:40.663Z,60.90
2023-04-20T11:25:53.871Z,61.20
2023-04-20T11:28:56.622Z,61.52
2023-04-20T11:31:59.533Z,61.81
2023-04-20T11:35:07.765Z,62.12
2023-04-20T11:38:09.643Z,62.43
2023-04-20T11:41:11.385Z,62.70
2023-04-20T11:44:15.255Z,63.00
2023-04-20T11:47:16.791Z,63.22
2023-04-20T11:50:18.705Z,63.47
2023-04-20T11:53:21.110Z,63.68
2023-04-20T11:56:23.076Z,64.07
2023-04-20T11:59:25.472Z,64.18
2023-04-20T12:02:27.268Z,64.36
2023-04-20T12:05:29.748Z,64.52
2023-04-20T12:08:31.827Z,64.71
2023-04-20T12:11:33.466Z,64.78
2023-04-20T12:14:35.451Z,64.91
2023-04-20T12:17:37.207Z,65.09
2023-04-20T12:20:38.912Z,65.22
2023-04-20T12:23:40.853Z,65.24
2023-04-20T12:26:42.461Z,65.41
2023-04-20T12:29:44.161Z,65.58
2023-04-20T12:32:45.827Z,65.67
2023-04-20T12:35:47.765Z,65.76
2023-04-20T12:38:52.455Z,65.73
2023-04-20T12:41:54.142Z,65.77
2023-04-20T12:44:56.383Z,65.76
2023-04-20T12:48:00.404Z,65.83
2023-04-20T12:51:02.392Z,65.79
2023-04-20T12:54:04.057Z,65.83
2023-04-20T12:57:05.687Z,65.73
2023-04-20T13:00:08.101Z,65.79
2023-04-20T13:03:10.099Z,65.65
2023-04-20T13:06:14.288Z,65.66
2023-04-20T13:09:16.281Z,65.61
2023-04-20T13:12:17.949Z,65.41
2023-04-20T13:15:37.550Z,65.30
2023-04-20T13:18:39.871Z,65.25
2023-04-20T13:21:41.597Z,65.03
2023-04-20T13:24:43.249Z,64.97
2023-04-20T13:27:44.825Z,64.93
2023-04-20T13:30:46.493Z,64.70
2023-04-20T13:33:48.120Z,64.55
2023-04-20T13:36:50.057Z,64.27
2023-04-20T13:39:51.775Z,64.22
2023-04-20T13:42:53.374Z,64.14
2023-04-20T13:45:55.084Z,64.05
2023-04-20T13:48:56.692Z,63.93
2023-04-20T13:51:58.254Z,63.82
2023-04-20T13:54:59.859Z,63.57
2023-04-20T14:01:21.980Z,63.38
2023-04-20T14:04:23.869Z,63.20
2023-04-20T14:07:25.670Z,63.10
2023-04-20T14:10:28.640Z,62.88
2023-04-20T14:13:30.281Z,62.82
2023-04-20T14:16:32.143Z,62.59
2023-04-20T14:19:33.920Z,62.51
2023-04-20T14:22:36.980Z,62.17
2023-04-20T14:25:38.637Z,62.43
2023-04-20T14:28:40.507Z,62.33
2023-04-20T14:31:42.215Z,62.06
2023-04-20T14:34:43.801Z,62.00
2023-04-20T14:37:45.399Z,61.97
2023-04-20T14:40:48.486Z,61.80
2023-04-20T14:43:50.118Z,61.82
2023-04-20T14:46:52.132Z,61.68
2023-04-20T14:49:55.105Z,61.65
2023-04-20T14:52:56.701Z,61.59
2023-04-20T14:55:58.350Z,61.54
2023-04-20T14:58:59.902Z,61.56
2023-04-20T15:02:03.570Z,61.50
2023-04-20T15:05:09.426Z,61.57
2023-04-20T15:08:12.745Z,61.54
2023-04-20T15:11:14.471Z,61.52
2023-04-20T15:14:16.315Z,61.48
2023-04-20T15:17:18.152Z,61.35
2023-04-20T15:20:19.895Z,61.32
2023-04-20T15:23:21.535Z,61.25
2023-04-20T15:26:23.210Z,61.09
2023-04-20T15:29:24.831Z,60.99
2023-04-20T15:32:26.633Z,60.59
2023-04-20T15:35:28.270Z,60.40
2023-04-20T15:38:29.801Z,60.14
2023-04-20T15:41:31.406Z,60.09
2023-04-20T15:44:33.184Z,59.89
2023-04-20T15:47:34.830Z,59.76
2023-04-20T15:50:36.656Z,59.69
2023-04-20T15:53:38.788Z,59.63
2023-04-20T15:56:40.935Z,59.64
2023-04-20T15:59:42.540Z,59.23
2023-04-20T16:02:44.307Z,59.22
2023-04-20T16:05:46.091Z,59.40
2023-04-20T16:08:49.741Z,59.36
2023-04-20T16:11:51.230Z,59.23
2023-04-20T16:14:53.945Z,59.28
2023-04-20T16:17:55.853Z,59.23
2023-04-20T16:20:57.595Z,59.04
2023-04-20T16:23:59.174Z,59.05
2023-04-20T16:27:01.752Z,58.97
2023-04-20T16:30:03.890Z,58.83
2023-04-20T16:33:05.849Z,58.67
2023-04-20T16:36:08.349Z,58.62
2023-04-20T16:39:10.294Z,58.64
2023-04-20T16:42:12.023Z,58.57
2023-04-20T16:45:13.798Z,58.34
2023-04-20T16:48:15.570Z,58.23
2023-04-20T16:51:17.152Z,58.04
2023-04-20T16:54:19.039Z,58.04
2023-04-20T16:57:21.327Z,57.94
2023-04-20T17:00:23.154Z,57.98
2023-04-20T17:03:24.953Z,58.18
2023-04-20T17:06:27.464Z,58.24
2023-04-20T17:09:29.040Z,58.05
2023-04-20T17:12:30.592Z,58.39
2023-04-20T17:15:32.246Z,58.47
2023-04-20T17:18:35.233Z,58.54
2023-04-20T17:21:36.868Z,58.71
2023-04-20T17:24:38.461Z,58.83
2023-04-20T17:27:40.156Z,58.94
2023-04-20T17:30:41.801Z,59.03
2023-04-20T17:33:45.049Z,59.22
2023-04-20T17:36:47.307Z,59.31
2023-04-20T17:39:48.922Z,59.50
2023-04-20T17:42:50.602Z,59.68
2023-04-20T17:45:52.258Z,59.81
2023-04-20T17:48:53.872Z,59.93
2023-04-20T17:51:55.546Z,60.17
2023-04-20T17:55:00.008Z,60.32
2023-04-20T17:58:02.146Z,60.56
2023-04-20T18:01:03.902Z,60.85
2023-04-20T18:04:06.080Z,60.96
2023-04-20T18:07:07.948Z,61.30
2023-04-20T18:10:10.193Z,61.40
2023-04-20T18:13:12.151Z,61.69
2023-04-20T18:16:13.770Z,61.89
2023-04-20T18:19:15.353Z,62.03
2023-04-20T18:22:17.244Z,62.27
2023-04-20T18:25:19.570Z,62.54
2023-04-20T18:28:21.497Z,62.73
2023-04-20T18:31:23.173Z,63.00
2023-04-20T18:34:29.763Z,63.26
2023-04-20T18:37:31.491Z,63.49
2023-04-20T18:40:33.114Z,63.72
2023-04-20T18:43:34.724Z,63.91
2023-04-20T18:46:36.431Z,64.10
2023-04-20T18:49:38.063Z,64.32
2023-04-20T18:52:39.713Z,64.58
2023-04-20T18:55:41.485Z,64.86
2023-04-20T18:58:43.261Z,65.06
2023-04-20T19:01:44.831Z,65.24
2023-04-20T19:04:46.528Z,65.36
2023-04-20T19:07:48.217Z,65.62
2023-04-20T19:11:09.627Z,65.72
2023-04-20T19:14:12.233Z,65.83
2023-04-20T19:17:13.965Z,65.95
2023-04-20T19:20:16.057Z,66.07
2023-04-20T19:23:18.173Z,66.20
2023-04-20T19:26:19.803Z,66.23
2023-04-20T19:29:21.439Z,66.35
2023-04-20T19:32:23.123Z,66.42
2023-04-20T19:35:24.677Z,66.59
2023-04-20T19:38:26.516Z,66.67
2023-04-20T19:41:28.291Z,66.76
2023-04-20T19:44:29.966Z,66.85
2023-04-20T19:47:31.594Z,66.87
2023-04-20T19:50:33.401Z,66.97
2023-04-20T19:53:35.101Z,66.97
2023-04-20T19:56:37.136Z,67.04
2023-04-20T19:59:40.199Z,67.15
2023-04-20T20:02:41.958Z,67.23
2023-04-20T20:05:44.631Z,67.29
2023-04-20T20:08:46.529Z,67.41
2023-04-20T20:11:50.201Z,67.44
2023-04-20T20:14:51.895Z,67.66
2023-04-20T20:17:58.767Z,67.78
2023-04-20T20:21:00.512Z,68.01
2023-04-20T20:24:02.261Z,68.01
2023-04-20T20:27:04.788Z,68.17
2023-04-20T20:30:07.130Z,68.32
2023-04-20T20:33:08.727Z,68.49
2023-04-20T20:36:10.513Z,68.63
2023-04-20T20:39:13.705Z,68.83
2023-04-20T20:42:15.773Z,68.98
2023-04-20T20:45:18.211Z,69.15
2023-04-20T20:48:20.302Z,69.28
2023-04-20T20:51:22.105Z,69.53
2023-04-20T20:54:24.970Z,69.84
2023-04-20T20:57:26.996Z,69.88
2023-04-20T21:00:28.678Z,70.19
2023-04-20T21:03:30.618Z,70.38
2023-04-20T21:06:36.072Z,70.52
2023-04-20T21:09:37.722Z,70.73
2023-04-20T21:12:39.350Z,70.79
2023-04-20T21:15:40.969Z,71.02
2023-04-20T21:18:42.617Z,71.15
2023-04-20T21:21:44.197Z,71.27
2023-04-20T21:24:45.911Z,71.38
2023-04-20T21:27:48.021Z,71.54
2023-04-20T21:30:49.579Z,71.61
2023-04-20T21:33:51.214Z,71.78
2023-04-20T21:36:52.865Z,71.83
2023-04-20T21:39:54.430Z,71.96
2023-04-20T21:42:56.160Z,71.94
2023-04-20T21:45:57.837Z,72.04
2023-04-20T21:48:59.425Z,72.12
2023-04-20T21:52:01.034Z,72.11
2023-04-20T21:55:02.737Z,72.22
2023-04-20T21:58:04.276Z,72.21
2023-04-20T22:01:05.911Z,72.24
2023-04-20T22:04:09.735Z,72.35
2023-04-20T22:07:11.689Z,72.37
2023-04-20T22:10:13.308Z,72.29
2023-04-20T22:13:15.952Z,72.41
2023-04-20T22:16:18.121Z,72.40
2023-04-20T22:19:20.001Z,72.35
2023-04-20T22:22:21.718Z,72.45
2023-04-20T22:25:26.421Z,72.37
2023-04-20T22:28:28.160Z,72.46
2023-04-20T22:31:30.056Z,72.38
2023-04-20T22:34:31.929Z,72.34
2023-04-20T22:37:34.699Z,72.28
2023-04-20T22:40:36.303Z,72.19
2023-04-20T22:43:38.018Z,72.20
2023-04-20T22:46:39.650Z,72.13
2023-04-20T22:49:42.060Z,72.11
2023-04-20T22:52:43.775Z,71.93
2023-04-20T22:55:46.148Z,71.90
2023-04-20T22:58:47.857Z,71.85
2023-04-20T23:01:49.514Z,71.67
2023-04-20T23:04:51.652Z,71.73
2023-04-20T23:07:54.037Z,71.65
2023-04-20T23:10:55.711Z,71.69
2023-04-20T23:13:57.400Z,71.59
2023-04-20T23:17:00.226Z,71.63
2023-04-20T23:20:01.900Z,71.42
2023-04-20T23:23:04.171Z,71.29
2023-04-20T23:26:05.938Z,71.26
2023-04-20T23:29:07.896Z,71.22
2023-04-20T23:32:09.673Z,71.09
2023-04-20T23:35:11.543Z,71.04
2023-04-20T23:38:13.277Z,70.95
2023-04-20T23:41:15.676Z,70.91
2023-04-20T23:44:17.363Z,70.84
2023-04-20T23:47:19.123Z,70.74
2023-04-20T23:50:20.964Z,70.73
2023-04-20T23:53:23.072Z,70.57
2023-04-20T23:56:24.831Z,70.68
2023-04-20T23:59:26.448Z,70.58
